createdAt,value
2022-12-03T00:02:16.892Z,16.50
2022-12-03T00:04:49.830Z,16.60
2022-12-03T00:07:22.735Z,16.60
2022-12-03T00:09:55.718Z,16.60
2022-12-03T00:12:28.366Z,16.60
2022-12-03T00:15:01.978Z,16.60
2022-12-03T00:17:34.459Z,16.60
2022-12-03T00:20:08.902Z,16.60
2022-12-03T00:22:41.532Z,16.60
2022-12-03T00:25:14.189Z,16.60
2022-12-03T00:27:47.056Z,16.60
2022-12-03T00:30:19.633Z,16.60
2022-12-03T00:32:52.281Z,16.60
2022-12-03T00:35:24.823Z,16.50
2022-12-03T00:37:57.582Z,16.50
2022-12-03T00:40:30.596Z,16.50
2022-12-03T00:43:03.563Z,16.50
2022-12-03T00:45:36.249Z,16.40
2022-12-03T00:48:08.969Z,16.50
2022-12-03T00:50:41.678Z,16.50
2022-12-03T00:53:15.690Z,16.50
2022-12-03T00:55:50.826Z,16.40
2022-12-03T00:58:23.391Z,16.40
2022-12-03T01:00:56.074Z,16.40
2022-12-03T01:03:28.821Z,16.30
2022-12-03T01:06:01.438Z,16.30
2022-12-03T01:08:34.122Z,16.30
2022-12-03T01:11:26.624Z,16.30
2022-12-03T01:13:59.396Z,16.20
2022-12-03T01:16:32.068Z,16.10
2022-12-03T01:19:06.459Z,16.10
2022-12-03T01:21:39.135Z,16.00
2022-12-03T01:24:12.473Z,16.00
2022-12-03T01:26:45.214Z,16.00
2022-12-03T01:29:17.831Z,16.00
2022-12-03T01:32:08.600Z,16.00
2022-12-03T01:34:41.279Z,15.90
2022-12-03T01:37:14.629Z,15.80
2022-12-03T01:39:48.189Z,15.80
2022-12-03T01:42:25.418Z,15.80
2022-12-03T01:45:00.047Z,15.80
2022-12-03T01:47:35.188Z,15.80
2022-12-03T01:50:27.515Z,15.80
2022-12-03T01:53:03.316Z,15.80
2022-12-03T01:55:35.979Z,15.80
2022-12-03T01:58:13.463Z,15.90
2022-12-03T02:00:46.129Z,15.90
2022-12-03T02:03:26.770Z,16.00
2022-12-03T02:05:59.390Z,16.00
2022-12-03T02:08:37.174Z,16.00
2022-12-03T02:11:18.938Z,16.10
2022-12-03T02:13:55.848Z,16.20
2022-12-03T02:16:30.985Z,16.20
2022-12-03T02:19:08.839Z,16.20
2022-12-03T02:21:53.235Z,16.30
2022-12-03T02:24:41.984Z,16.30
2022-12-03T02:27:14.610Z,16.40
2022-12-03T02:29:47.174Z,16.40
2022-12-03T02:32:23.678Z,16.40
2022-12-03T02:34:56.772Z,16.50
2022-12-03T02:37:37.005Z,16.50
2022-12-03T02:40:14.964Z,16.50
2022-12-03T02:42:48.416Z,16.50
2022-12-03T02:45:31.276Z,16.50
2022-12-03T02:48:26.054Z,16.60
2022-12-03T02:51:02.753Z,16.60
2022-12-03T02:53:44.673Z,16.60
2022-12-03T03:09:13.450Z,16.60
2022-12-03T03:11:46.033Z,17.00
2022-12-03T03:14:18.846Z,17.00
2022-12-03T03:16:56.449Z,17.00
2022-12-03T03:19:29.942Z,17.00
2022-12-03T03:22:02.724Z,17.00
2022-12-03T03:24:35.326Z,17.00
2022-12-03T03:27:08.219Z,16.90
2022-12-03T03:29:40.889Z,16.90
2022-12-03T03:32:15.602Z,16.90
2022-12-03T03:34:48.271Z,16.90
2022-12-03T03:37:21.024Z,16.90
2022-12-03T03:39:53.946Z,16.90
2022-12-03T03:42:26.605Z,16.90
2022-12-03T03:44:59.446Z,16.90
2022-12-03T03:47:32.687Z,16.90
2022-12-03T03:50:06.811Z,16.90
2022-12-03T03:52:41.006Z,16.90
2022-12-03T03:55:13.844Z,16.90
2022-12-03T03:57:48.701Z,16.90
2022-12-03T04:00:22.116Z,16.90
2022-12-03T04:02:55.186Z,16.90
2022-12-03T04:05:28.965Z,16.90
2022-12-03T04:08:01.849Z,16.90
2022-12-03T04:10:53.060Z,16.90
2022-12-03T04:13:25.610Z,16.90
2022-12-03T04:15:58.258Z,16.90
2022-12-03T04:18:43.111Z,16.90
2022-12-03T04:21:36.818Z,16.90
2022-12-03T04:24:11.312Z,16.90
2022-12-03T04:27:02.337Z,16.90
2022-12-03T04:29:34.933Z,16.90
2022-12-03T04:32:25.980Z,16.90
2022-12-03T04:35:16.774Z,16.80
2022-12-03T04:37:49.371Z,16.90
2022-12-03T04:40:40.217Z,16.80
2022-12-03T04:43:13.279Z,16.80
2022-12-03T04:45:45.906Z,16.80
2022-12-03T04:48:18.574Z,16.80
2022-12-03T04:50:51.423Z,16.70
2022-12-03T04:53:24.117Z,16.70
2022-12-03T04:55:56.671Z,16.70
2022-12-03T04:58:29.225Z,16.70
2022-12-03T05:01:01.842Z,16.60
2022-12-03T05:03:34.605Z,16.60
2022-12-03T05:06:07.344Z,16.60
2022-12-03T05:08:40.035Z,16.60
2022-12-03T05:11:12.601Z,16.60
2022-12-03T05:13:45.120Z,16.60
2022-12-03T05:16:17.870Z,16.50
2022-12-03T05:18:50.581Z,16.50
2022-12-03T05:21:23.394Z,16.50
2022-12-03T05:23:56.037Z,16.50
2022-12-03T05:26:28.661Z,16.50
2022-12-03T05:29:01.581Z,16.50
2022-12-03T05:31:34.092Z,16.50
2022-12-03T05:34:06.783Z,16.40
2022-12-03T05:36:39.363Z,16.40
2022-12-03T05:39:11.955Z,16.40
2022-12-03T05:42:02.944Z,16.40
2022-12-03T05:44:36.186Z,16.40
2022-12-03T05:47:08.724Z,16.40
2022-12-03T05:49:41.393Z,16.30
2022-12-03T05:52:13.984Z,16.30
2022-12-03T05:54:46.603Z,16.40
2022-12-03T05:57:19.265Z,16.40
2022-12-03T05:59:51.886Z,16.30
2022-12-03T06:02:24.549Z,16.30
2022-12-03T06:04:57.261Z,16.30
2022-12-03T06:07:30.002Z,16.30
2022-12-03T06:10:02.709Z,16.30
2022-12-03T06:12:35.794Z,16.30
2022-12-03T06:15:09.970Z,16.30
2022-12-03T06:17:43.061Z,16.30
2022-12-03T06:20:18.464Z,16.30
2022-12-03T06:22:51.092Z,16.30
2022-12-03T06:25:23.713Z,16.30
2022-12-03T06:27:56.403Z,16.30
2022-12-03T06:30:28.958Z,16.30
2022-12-03T06:33:03.447Z,16.30
2022-12-03T06:35:36.065Z,16.30
2022-12-03T06:38:08.678Z,16.30
2022-12-03T06:40:41.223Z,16.30
2022-12-03T06:43:14.123Z,16.30
2022-12-03T06:45:48.009Z,16.40
2022-12-03T06:48:20.785Z,16.50
2022-12-03T06:50:56.472Z,16.50
2022-12-03T06:53:30.693Z,16.60
2022-12-03T06:56:03.151Z,16.60
2022-12-03T06:58:35.748Z,16.60
2022-12-03T07:01:08.248Z,16.60
2022-12-03T07:03:40.883Z,16.60
2022-12-03T07:06:13.663Z,16.60
2022-12-03T07:08:46.259Z,16.70
2022-12-03T07:11:47.265Z,16.70
2022-12-03T07:14:19.958Z,16.70
2022-12-03T07:16:52.575Z,16.80
2022-12-03T07:19:30.720Z,16.90
2022-12-03T07:22:05.385Z,17.00
2022-12-03T07:24:37.960Z,17.00
2022-12-03T07:27:10.531Z,17.00
2022-12-03T07:29:43.217Z,17.00
2022-12-03T07:32:15.790Z,17.10
2022-12-03T07:34:48.328Z,17.10
2022-12-03T07:37:23.237Z,17.20
2022-12-03T07:39:56.140Z,17.20
2022-12-03T07:42:28.894Z,17.30
2022-12-03T07:45:01.489Z,17.40
2022-12-03T07:47:34.058Z,17.50
2022-12-03T07:50:07.301Z,17.60
2022-12-03T07:52:39.662Z,17.70
2022-12-03T07:55:13.587Z,17.80
2022-12-03T07:57:46.022Z,17.90
2022-12-03T08:00:20.306Z,17.90
2022-12-03T08:02:52.816Z,18.00
2022-12-03T08:05:25.380Z,18.00
2022-12-03T08:07:58.015Z,18.00
2022-12-03T08:10:34.552Z,18.10
2022-12-03T08:13:14.670Z,18.10
2022-12-03T08:15:47.700Z,18.10
2022-12-03T08:18:22.324Z,18.10
2022-12-03T08:20:54.828Z,18.10
2022-12-03T08:23:28.060Z,18.10
2022-12-03T08:26:04.776Z,18.00
2022-12-03T08:28:38.335Z,18.00
2022-12-03T08:31:22.409Z,18.00
2022-12-03T08:34:32.001Z,18.00
2022-12-03T08:37:15.222Z,17.90
2022-12-03T08:39:50.239Z,17.90
2022-12-03T08:42:42.942Z,17.90
2022-12-03T08:45:40.989Z,17.90
2022-12-03T08:48:19.590Z,17.90
2022-12-03T08:50:53.774Z,17.80
2022-12-03T08:53:34.093Z,17.80
2022-12-03T08:56:21.031Z,17.80
2022-12-03T08:59:16.292Z,17.80
2022-12-03T09:01:49.430Z,17.80
2022-12-03T09:04:36.356Z,17.80
2022-12-03T09:07:08.969Z,17.80
2022-12-03T09:09:42.020Z,17.80
2022-12-03T09:12:14.627Z,17.80
2022-12-03T09:14:47.326Z,17.80
2022-12-03T09:17:21.922Z,17.80
2022-12-03T09:19:54.765Z,17.80
2022-12-03T09:22:27.518Z,17.80
2022-12-03T09:25:00.161Z,17.80
2022-12-03T09:27:33.036Z,17.90
2022-12-03T09:30:06.736Z,17.90
2022-12-03T09:32:39.285Z,17.90
2022-12-03T09:35:12.037Z,17.90
2022-12-03T09:37:44.715Z,17.90
2022-12-03T09:40:17.537Z,17.90
2022-12-03T09:42:51.572Z,17.90
2022-12-03T09:45:25.030Z,17.90
2022-12-03T09:47:57.727Z,17.90
2022-12-03T09:50:32.219Z,17.90
2022-12-03T09:53:04.986Z,17.90
2022-12-03T09:55:37.569Z,17.80
2022-12-03T09:58:14.974Z,17.80
2022-12-03T10:00:50.923Z,17.80
2022-12-03T10:03:30.001Z,17.80
2022-12-03T10:06:06.628Z,17.80
2022-12-03T10:08:39.250Z,17.80
2022-12-03T10:11:12.141Z,17.80
2022-12-03T10:13:45.560Z,17.80
2022-12-03T10:16:21.143Z,17.80
2022-12-03T10:18:57.326Z,17.80
2022-12-03T10:21:36.384Z,17.80
2022-12-03T10:24:29.123Z,17.80
2022-12-03T10:27:04.576Z,17.80
2022-12-03T10:29:37.275Z,17.80
2022-12-03T10:32:13.069Z,17.80
2022-12-03T10:34:46.062Z,17.80
2022-12-03T10:37:25.560Z,17.80
2022-12-03T10:40:14.635Z,17.80
2022-12-03T10:42:49.136Z,17.80
2022-12-03T10:45:24.124Z,17.80
2022-12-03T10:48:11.604Z,17.80
2022-12-03T10:50:54.756Z,17.80
2022-12-03T10:53:35.534Z,17.80
2022-12-03T10:56:23.838Z,17.90
2022-12-03T10:58:56.900Z,17.90
2022-12-03T11:01:29.648Z,17.90
2022-12-03T11:04:05.252Z,17.90
2022-12-03T11:06:38.033Z,17.90
2022-12-03T11:09:39.399Z,17.90
2022-12-03T11:12:21.774Z,17.90
2022-12-03T11:14:58.775Z,17.90
2022-12-03T11:17:44.862Z,17.90
2022-12-03T11:20:26.324Z,17.90
2022-12-03T11:22:59.730Z,17.90
2022-12-03T11:25:47.395Z,17.90
2022-12-03T11:28:20.111Z,17.90
2022-12-03T11:31:01.433Z,17.90
2022-12-03T11:33:39.715Z,17.90
2022-12-03T11:36:13.642Z,17.90
2022-12-03T11:38:53.341Z,18.00
2022-12-03T11:41:29.805Z,18.00
2022-12-03T11:44:29.604Z,18.00
2022-12-03T11:47:13.876Z,18.00
2022-12-03T11:49:48.090Z,18.00
2022-12-03T11:52:28.989Z,18.00
2022-12-03T11:55:23.501Z,18.00
2022-12-03T11:58:02.062Z,18.10
2022-12-03T12:00:35.423Z,18.10
2022-12-03T12:03:33.400Z,18.10
2022-12-03T12:06:07.531Z,18.20
2022-12-03T12:08:59.389Z,18.20
2022-12-03T12:11:37.083Z,18.20
2022-12-03T12:14:13.393Z,18.20
2022-12-03T12:16:51.064Z,18.30
2022-12-03T12:19:35.975Z,18.30
2022-12-03T12:22:30.730Z,18.20
2022-12-03T12:25:25.599Z,18.30
2022-12-03T12:27:58.237Z,18.30
2022-12-03T12:30:30.794Z,18.30
2022-12-03T12:33:23.597Z,18.30
2022-12-03T12:35:56.220Z,18.30
2022-12-03T12:38:28.842Z,18.30
2022-12-03T12:41:08.150Z,18.30
2022-12-03T12:43:41.131Z,18.30
2022-12-03T12:46:46.806Z,18.30
2022-12-03T12:49:13.888Z,18.30
2022-12-03T12:51:48.091Z,18.30
2022-12-03T12:54:20.658Z,18.30
2022-12-03T12:56:53.493Z,18.30
2022-12-03T12:59:26.425Z,18.30
2022-12-03T13:02:01.723Z,18.30
2022-12-03T13:04:40.318Z,18.30
2022-12-03T13:07:12.978Z,18.30
2022-12-03T13:09:45.674Z,18.30
2022-12-03T13:12:24.504Z,18.20
2022-12-03T13:14:59.758Z,18.20
2022-12-03T13:17:32.379Z,18.10
2022-12-03T13:20:19.296Z,18.10
2022-12-03T13:22:51.791Z,18.00
2022-12-03T13:25:59.388Z,18.00
2022-12-03T13:28:31.529Z,18.00
2022-12-03T13:31:23.756Z,18.00
2022-12-03T13:33:58.233Z,18.00
2022-12-03T13:36:44.392Z,18.00
2022-12-03T13:39:35.698Z,18.00
2022-12-03T13:42:46.271Z,18.10
2022-12-03T13:45:19.099Z,18.00
2022-12-03T13:47:56.408Z,18.10
2022-12-03T13:50:36.428Z,18.10
2022-12-03T13:53:11.925Z,18.10
2022-12-03T13:55:47.476Z,18.10
2022-12-03T13:58:20.166Z,18.10
2022-12-03T14:00:54.047Z,18.10
2022-12-03T14:03:26.931Z,18.10
2022-12-03T14:05:59.449Z,18.10
2022-12-03T14:08:32.111Z,18.20
2022-12-03T14:11:04.935Z,18.20
2022-12-03T14:13:37.489Z,18.20
2022-12-03T14:16:10.129Z,18.20
2022-12-03T14:18:42.668Z,18.20
2022-12-03T14:21:15.252Z,18.20
2022-12-03T14:23:47.906Z,18.30
2022-12-03T14:26:20.413Z,18.30
2022-12-03T14:28:53.011Z,18.30
2022-12-03T14:31:26.135Z,18.30
2022-12-03T14:33:58.583Z,18.30
2022-12-03T14:36:31.155Z,18.30
2022-12-03T14:39:03.766Z,18.30
2022-12-03T14:41:54.439Z,18.30
2022-12-03T14:44:26.983Z,18.30
2022-12-03T14:46:59.486Z,18.30
2022-12-03T14:49:32.071Z,18.30
2022-12-03T14:52:08.602Z,18.30
2022-12-03T14:54:44.938Z,18.30
2022-12-03T14:57:17.610Z,18.30
2022-12-03T14:59:50.294Z,18.20
2022-12-03T15:02:22.790Z,18.20
2022-12-03T15:04:55.400Z,18.30
2022-12-03T15:07:28.059Z,18.30
2022-12-03T15:10:00.669Z,18.20
2022-12-03T15:12:33.194Z,18.20
2022-12-03T15:15:06.162Z,18.20
2022-12-03T15:17:38.824Z,18.20
2022-12-03T15:20:12.144Z,18.20
2022-12-03T15:22:44.777Z,18.20
2022-12-03T15:25:24.446Z,18.20
2022-12-03T15:27:57.558Z,18.20
2022-12-03T15:30:31.128Z,18.20
2022-12-03T15:33:03.893Z,18.20
2022-12-03T15:35:36.646Z,18.20
2022-12-03T15:38:10.414Z,18.20
2022-12-03T15:40:43.045Z,18.20
2022-12-03T15:43:15.794Z,18.20
2022-12-03T15:45:48.516Z,18.20
2022-12-03T15:48:21.102Z,18.20
2022-12-03T15:50:53.626Z,18.20
2022-12-03T15:53:26.203Z,18.20
2022-12-03T15:55:58.717Z,18.20
2022-12-03T15:58:33.214Z,18.20
2022-12-03T16:01:05.937Z,18.20
2022-12-03T16:03:38.528Z,18.20
2022-12-03T16:06:11.033Z,18.20
2022-12-03T16:08:46.553Z,18.20
2022-12-03T16:11:19.152Z,18.20
2022-12-03T16:13:52.235Z,18.20
2022-12-03T16:16:24.683Z,18.20
2022-12-03T16:18:57.293Z,18.20
2022-12-03T16:21:29.841Z,18.20
2022-12-03T16:24:03.151Z,18.20
2022-12-03T16:26:35.707Z,18.20
2022-12-03T16:29:11.313Z,18.20
2022-12-03T16:31:43.980Z,18.20
2022-12-03T16:34:16.573Z,18.20
2022-12-03T16:36:49.218Z,18.20
2022-12-03T16:39:21.833Z,18.20
2022-12-03T16:41:54.669Z,18.20
2022-12-03T16:44:43.807Z,18.20
2022-12-03T16:47:16.316Z,18.30
2022-12-03T16:49:49.415Z,18.20
2022-12-03T16:52:22.491Z,18.30
2022-12-03T16:54:55.172Z,18.20
2022-12-03T16:57:33.378Z,18.30
2022-12-03T17:00:07.637Z,18.30
2022-12-03T17:02:40.279Z,18.20
2022-12-03T17:05:12.932Z,18.30
2022-12-03T17:07:45.632Z,18.30
2022-12-03T17:10:18.340Z,18.30
2022-12-03T17:15:43.589Z,18.30
2022-12-03T17:18:16.275Z,18.30
2022-12-03T17:20:49.036Z,18.30
2022-12-03T17:23:21.673Z,18.30
2022-12-03T17:25:54.260Z,18.30
2022-12-03T17:28:26.964Z,18.30
2022-12-03T17:30:59.616Z,18.30
2022-12-03T17:33:32.263Z,18.30
2022-12-03T17:36:05.327Z,18.30
2022-12-03T17:38:39.493Z,18.30
2022-12-03T17:41:12.171Z,18.30
2022-12-03T17:43:44.804Z,18.30
2022-12-03T17:46:18.643Z,18.30
2022-12-03T17:48:51.371Z,18.30
2022-12-03T17:51:30.346Z,18.30
2022-12-03T17:54:03.003Z,18.30
2022-12-03T17:56:47.550Z,18.30
2022-12-03T17:59:20.053Z,18.30
2022-12-03T18:01:52.775Z,18.30
2022-12-03T18:04:25.664Z,18.30
2022-12-03T18:07:02.174Z,18.30
2022-12-03T18:09:35.055Z,18.30
2022-12-03T18:12:07.671Z,18.30
2022-12-03T18:14:41.146Z,18.30
2022-12-03T18:17:14.616Z,18.30
2022-12-03T18:19:47.130Z,18.30
2022-12-03T18:22:20.062Z,18.30
2022-12-03T18:24:52.963Z,18.30
2022-12-03T18:27:25.643Z,18.30
2022-12-03T18:29:58.250Z,18.30
2022-12-03T18:32:30.936Z,18.30
2022-12-03T18:35:03.916Z,18.30
2022-12-03T18:37:36.817Z,18.30
2022-12-03T18:40:32.855Z,18.20
2022-12-03T18:43:15.362Z,18.20
2022-12-03T18:45:48.305Z,18.20
2022-12-03T18:48:27.479Z,18.20
2022-12-03T18:51:05.720Z,18.20
2022-12-03T18:53:38.462Z,18.20
2022-12-03T18:56:12.148Z,18.20
2022-12-03T18:58:45.294Z,18.20
2022-12-03T19:01:22.085Z,18.20
2022-12-03T19:03:54.734Z,18.20
2022-12-03T19:06:29.243Z,18.10
2022-12-03T19:09:02.035Z,18.20
2022-12-03T19:11:34.636Z,18.20
2022-12-03T19:14:12.029Z,18.20
2022-12-03T19:16:44.937Z,18.20
2022-12-03T19:19:17.503Z,18.10
2022-12-03T19:21:50.023Z,18.20
2022-12-03T19:24:25.004Z,18.10
2022-12-03T19:27:02.991Z,18.10
2022-12-03T19:29:36.089Z,18.10
2022-12-03T19:32:11.818Z,18.10
2022-12-03T19:34:44.468Z,18.10
2022-12-03T19:37:17.148Z,18.00
2022-12-03T19:39:54.286Z,18.00
2022-12-03T19:42:27.465Z,18.00
2022-12-03T19:45:04.712Z,18.00
2022-12-03T19:47:43.877Z,18.00
2022-12-03T19:50:23.033Z,18.00
2022-12-03T19:52:59.631Z,18.00
2022-12-03T19:55:35.689Z,18.00
2022-12-03T19:58:08.218Z,18.00
2022-12-03T20:00:40.891Z,18.00
2022-12-03T20:03:13.773Z,18.00
2022-12-03T20:05:46.369Z,18.00
2022-12-03T20:08:19.046Z,18.00
2022-12-03T20:10:51.568Z,18.00
2022-12-03T20:13:24.272Z,18.00
2022-12-03T20:15:57.012Z,18.00
2022-12-03T20:18:29.654Z,18.00
2022-12-03T20:21:03.077Z,18.00
2022-12-03T20:23:35.659Z,18.00
2022-12-03T20:26:16.596Z,18.00
2022-12-03T20:28:56.695Z,18.00
2022-12-03T20:31:31.362Z,18.00
2022-12-03T20:34:05.087Z,18.00
2022-12-03T20:36:37.857Z,18.00
2022-12-03T20:39:10.966Z,18.00
2022-12-03T20:41:43.341Z,18.00
2022-12-03T20:44:16.106Z,18.10
2022-12-03T20:46:48.874Z,18.00
2022-12-03T20:49:21.406Z,18.00
2022-12-03T20:51:53.901Z,18.00
2022-12-03T20:54:26.478Z,18.00
2022-12-03T20:56:59.028Z,18.00
2022-12-03T20:59:33.044Z,18.00
2022-12-03T21:02:05.735Z,18.00
2022-12-03T21:04:38.410Z,18.00
2022-12-03T21:07:10.948Z,18.00
2022-12-03T21:09:43.496Z,18.00
2022-12-03T21:12:16.088Z,18.00
2022-12-03T21:14:48.663Z,18.00
2022-12-03T21:17:22.215Z,18.00
2022-12-03T21:19:55.159Z,18.00
2022-12-03T21:22:28.043Z,18.00
2022-12-03T21:25:00.687Z,18.00
2022-12-03T21:27:33.358Z,18.00
2022-12-03T21:30:06.717Z,18.00
2022-12-03T21:32:39.335Z,18.00
2022-12-03T21:35:11.850Z,17.90
2022-12-03T21:37:44.319Z,18.00
2022-12-03T21:40:16.926Z,18.00
2022-12-03T21:42:49.603Z,18.00
2022-12-03T21:45:25.283Z,17.90
2022-12-03T21:47:57.892Z,17.90
2022-12-03T21:50:30.443Z,17.90
2022-12-03T21:53:03.090Z,17.90
2022-12-03T21:55:38.335Z,17.90
2022-12-03T21:58:10.875Z,17.90
2022-12-03T22:00:43.574Z,17.90
2022-12-03T22:03:16.240Z,17.90
2022-12-03T22:05:51.012Z,17.90
2022-12-03T22:08:23.663Z,17.80
2022-12-03T22:10:56.222Z,17.80
2022-12-03T22:13:28.852Z,17.80
2022-12-03T22:16:05.939Z,17.80
2022-12-03T22:18:38.687Z,17.70
2022-12-03T22:21:13.644Z,17.70
2022-12-03T22:23:46.785Z,17.70
2022-12-03T22:26:19.728Z,17.70
2022-12-03T22:28:52.578Z,17.70
2022-12-03T22:31:25.180Z,17.70
2022-12-03T22:33:57.806Z,17.60
2022-12-03T22:36:30.937Z,17.70
2022-12-03T22:39:03.949Z,17.70
2022-12-03T22:41:36.599Z,17.70
2022-12-03T22:44:10.292Z,17.60
2022-12-03T22:46:42.930Z,17.60
2022-12-03T22:49:15.528Z,17.60
2022-12-03T22:51:48.479Z,17.60
2022-12-03T22:54:24.140Z,17.60
2022-12-03T22:56:57.632Z,17.50
2022-12-03T22:59:30.220Z,17.50
2022-12-03T23:02:02.882Z,17.50
2022-12-03T23:04:35.417Z,17.50
2022-12-03T23:07:08.613Z,17.50
2022-12-03T23:09:41.034Z,17.50
2022-12-03T23:12:14.885Z,17.50
2022-12-03T23:14:47.588Z,17.40
2022-12-03T23:17:20.053Z,17.40
2022-12-03T23:19:52.995Z,17.40
2022-12-03T23:22:25.921Z,17.40
2022-12-03T23:24:58.594Z,17.40
2022-12-03T23:27:31.137Z,17.40
2022-12-03T23:30:04.905Z,17.40
2022-12-03T23:32:37.842Z,17.30
2022-12-03T23:35:12.429Z,17.30
2022-12-03T23:37:45.029Z,17.30
2022-12-03T23:40:17.694Z,17.30
2022-12-03T23:42:50.420Z,17.30
2022-12-03T23:45:23.294Z,17.30
2022-12-03T23:47:58.348Z,17.30
2022-12-03T23:50:31.266Z,17.30
2022-12-03T23:53:03.828Z,17.20
2022-12-03T23:55:40.240Z,17.20
2022-12-03T23:58:12.932Z,17.20
